Noma, Florida
Current Conditions -  °F | °C
As of 9:58 AM on Friday 28 Nov 2014 (Local Time) from K1J0 Reporting Station
Clear Clear  
Wind Chill: 45°   Ceiling: Unl
Heat Index: 48°   Visibility: 10mi
Dew Point: 32°   Wind: 7mph
Humidity: 54%   Direction: 10°N
Pressure: 30.44"   Gusts: NA
Location:  30.98°N, 85.62°W
Report Text: K1J0 281558Z AUTO 01006KT 10SM CLR 09/00 A3044 RMK AO2 SLP293 T00890000
Loading
Personal Weather Stations






























Interactive Weather Map New forecast layout! Learn more

10-Day Weather Forecast

Advertisements
Track Severe Weather on mobile